sensor_id;sensor_type;location;lat;lon;timestamp;pressure;altitude;pressure_sealevel;temperature;humidity
32933;BME280;19444;50.518;10.870;2023-03-03T00:00:50;96828.34;;;0.60;100.00
32933;BME280;19444;50.518;10.870;2023-03-03T00:03:47;96832.41;;;0.51;100.00
32933;BME280;19444;50.518;10.870;2023-03-03T00:06:44;96830.13;;;0.43;100.00
32933;BME280;19444;50.518;10.870;2023-03-03T00:09:41;96837.72;;;0.39;100.00
32933;BME280;19444;50.518;10.870;2023-03-03T00:12:48;96842.53;;;0.42;100.00
32933;BME280;19444;50.518;10.870;2023-03-03T00:15:45;96846.75;;;0.55;100.00
32933;BME280;19444;50.518;10.870;2023-03-03T00:18:45;96841.03;;;0.46;100.00
32933;BME280;19444;50.518;10.870;2023-03-03T00:21:45;96833.94;;;0.47;100.00
32933;BME280;19444;50.518;10.870;2023-03-03T00:24:42;96837.50;;;0.41;100.00
32933;BME280;19444;50.518;10.870;2023-03-03T00:27:39;96841.28;;;0.33;100.00
32933;BME280;19444;50.518;10.870;2023-03-03T00:30:36;96833.50;;;0.38;100.00
32933;BME280;19444;50.518;10.870;2023-03-03T00:33:39;96831.19;;;0.42;100.00
32933;BME280;19444;50.518;10.870;2023-03-03T00:36:40;96831.22;;;0.30;100.00
32933;BME280;19444;50.518;10.870;2023-03-03T00:39:38;96837.63;;;0.34;100.00
32933;BME280;19444;50.518;10.870;2023-03-03T00:42:35;96841.69;;;0.53;100.00
32933;BME280;19444;50.518;10.870;2023-03-03T00:45:44;96836.00;;;0.33;100.00
32933;BME280;19444;50.518;10.870;2023-03-03T00:48:42;96830.66;;;0.28;100.00
32933;BME280;19444;50.518;10.870;2023-03-03T00:51:43;96827.13;;;0.51;100.00
32933;BME280;19444;50.518;10.870;2023-03-03T00:54:39;96826.69;;;0.42;100.00
32933;BME280;19444;50.518;10.870;2023-03-03T00:57:36;96818.97;;;0.24;100.00
32933;BME280;19444;50.518;10.870;2023-03-03T01:00:35;96820.25;;;0.21;100.00
32933;BME280;19444;50.518;10.870;2023-03-03T01:03:32;96826.41;;;0.27;100.00
32933;BME280;19444;50.518;10.870;2023-03-03T01:06:28;96817.94;;;0.25;100.00
32933;BME280;19444;50.518;10.870;2023-03-03T01:09:25;96817.03;;;0.19;100.00
32933;BME280;19444;50.518;10.870;2023-03-03T01:12:23;96811.97;;;0.30;100.00
32933;BME280;19444;50.518;10.870;2023-03-03T01:15:20;96808.59;;;0.46;100.00
32933;BME280;19444;50.518;10.870;2023-03-03T01:18:17;96811.81;;;0.36;100.00
32933;BME280;19444;50.518;10.870;2023-03-03T01:21:14;96801.34;;;0.13;100.00
32933;BME280;19444;50.518;10.870;2023-03-03T01:24:11;96799.97;;;0.22;100.00
32933;BME280;19444;50.518;10.870;2023-03-03T01:27:08;96805.38;;;0.44;100.00
32933;BME280;19444;50.518;10.870;2023-03-03T01:30:07;96805.53;;;0.37;100.00
32933;BME280;19444;50.518;10.870;2023-03-03T01:33:05;96797.75;;;0.31;100.00
32933;BME280;19444;50.518;10.870;2023-03-03T01:36:02;96802.97;;;0.42;100.00
32933;BME280;19444;50.518;10.870;2023-03-03T01:39:00;96795.72;;;0.21;100.00
32933;BME280;19444;50.518;10.870;2023-03-03T01:41:57;96804.16;;;0.35;100.00
32933;BME280;19444;50.518;10.870;2023-03-03T01:45:18;96802.09;;;0.37;100.00
32933;BME280;19444;50.518;10.870;2023-03-03T01:48:32;96791.56;;;0.25;100.00
32933;BME280;19444;50.518;10.870;2023-03-03T01:51:37;96798.00;;;0.17;100.00
32933;BME280;19444;50.518;10.870;2023-03-03T01:54:43;96796.19;;;0.18;100.00
32933;BME280;19444;50.518;10.870;2023-03-03T01:57:51;96797.16;;;0.40;100.00
32933;BME280;19444;50.518;10.870;2023-03-03T02:00:58;96801.88;;;0.26;100.00
32933;BME280;19444;50.518;10.870;2023-03-03T02:03:56;96810.00;;;0.37;100.00
32933;BME280;19444;50.518;10.870;2023-03-03T02:06:59;96802.09;;;0.37;100.00
32933;BME280;19444;50.518;10.870;2023-03-03T02:10:13;96802.13;;;0.25;100.00
32933;BME280;19444;50.518;10.870;2023-03-03T02:13:11;96798.38;;;0.21;100.00
32933;BME280;19444;50.518;10.870;2023-03-03T02:16:08;96800.16;;;0.32;100.00
32933;BME280;19444;50.518;10.870;2023-03-03T02:19:16;96787.09;;;0.25;100.00
32933;BME280;19444;50.518;10.870;2023-03-03T02:22:21;96797.75;;;0.31;100.00
32933;BME280;19444;50.518;10.870;2023-03-03T02:28:38;96794.94;;;0.20;100.00
32933;BME280;19444;50.518;10.870;2023-03-03T02:31:35;96804.00;;;0.13;100.00
32933;BME280;19444;50.518;10.870;2023-03-03T02:34:49;96798.84;;;0.06;100.00
32933;BME280;19444;50.518;10.870;2023-03-03T02:37:47;96791.19;;;0.05;100.00
32933;BME280;19444;50.518;10.870;2023-03-03T02:41:01;96784.03;;;-0.23;100.00
32933;BME280;19444;50.518;10.870;2023-03-03T02:47:07;96787.91;;;-0.14;100.00
32933;BME280;19444;50.518;10.870;2023-03-03T02:50:05;96791.91;;;-0.12;100.00
32933;BME280;19444;50.518;10.870;2023-03-03T02:53:02;96796.13;;;-0.11;100.00
32933;BME280;19444;50.518;10.870;2023-03-03T02:55:59;96805.88;;;0.01;100.00
32933;BME280;19444;50.518;10.870;2023-03-03T02:58:56;96812.97;;;-0.12;100.00
32933;BME280;19444;50.518;10.870;2023-03-03T03:01:53;96812.06;;;-0.06;100.00
32933;BME280;19444;50.518;10.870;2023-03-03T03:04:50;96801.41;;;0.01;100.00
32933;BME280;19444;50.518;10.870;2023-03-03T03:07:47;96790.97;;;-0.06;100.00
32933;BME280;19444;50.518;10.870;2023-03-03T03:10:44;96796.03;;;-0.16;100.00
32933;BME280;19444;50.518;10.870;2023-03-03T03:13:41;96785.03;;;-0.13;100.00
32933;BME280;19444;50.518;10.870;2023-03-03T03:16:38;96789.94;;;-0.05;100.00
32933;BME280;19444;50.518;10.870;2023-03-03T03:19:35;96812.75;;;-0.22;100.00
32933;BME280;19444;50.518;10.870;2023-03-03T03:22:33;96809.53;;;-0.12;100.00
32933;BME280;19444;50.518;10.870;2023-03-03T03:25:30;96807.38;;;-0.15;100.00
32933;BME280;19444;50.518;10.870;2023-03-03T03:28:26;96812.75;;;-0.10;100.00
32933;BME280;19444;50.518;10.870;2023-03-03T03:31:23;96818.03;;;-0.22;100.00
32933;BME280;19444;50.518;10.870;2023-03-03T03:34:20;96817.13;;;-0.16;100.00
32933;BME280;19444;50.518;10.870;2023-03-03T03:37:17;96814.72;;;-0.17;100.00
32933;BME280;19444;50.518;10.870;2023-03-03T03:40:14;96811.50;;;-0.19;100.00
32933;BME280;19444;50.518;10.870;2023-03-03T03:43:11;96812.88;;;-0.17;100.00
32933;BME280;19444;50.518;10.870;2023-03-03T03:46:08;96819.28;;;-0.13;100.00
32933;BME280;19444;50.518;10.870;2023-03-03T03:49:05;96803.25;;;-0.23;100.00
32933;BME280;19444;50.518;10.870;2023-03-03T03:52:02;96815.50;;;-0.29;100.00
32933;BME280;19444;50.518;10.870;2023-03-03T03:54:58;96812.19;;;-0.24;100.00
32933;BME280;19444;50.518;10.870;2023-03-03T03:57:56;96812.97;;;-0.12;100.00
32933;BME280;19444;50.518;10.870;2023-03-03T04:00:54;96811.13;;;-0.11;100.00
32933;BME280;19444;50.518;10.870;2023-03-03T04:03:51;96806.56;;;-0.04;100.00
32933;BME280;19444;50.518;10.870;2023-03-03T04:06:48;96811.63;;;-0.26;100.00
32933;BME280;19444;50.518;10.870;2023-03-03T04:09:45;96805.34;;;-0.25;100.00
32933;BME280;19444;50.518;10.870;2023-03-03T04:12:42;96812.66;;;-0.27;100.00
32933;BME280;19444;50.518;10.870;2023-03-03T04:15:39;96813.00;;;-0.23;100.00
32933;BME280;19444;50.518;10.870;2023-03-03T04:18:37;96814.94;;;-0.07;100.00
32933;BME280;19444;50.518;10.870;2023-03-03T04:21:33;96820.31;;;-0.14;100.00
32933;BME280;19444;50.518;10.870;2023-03-03T04:24:30;96822.03;;;-0.31;100.00
32933;BME280;19444;50.518;10.870;2023-03-03T04:27:27;96814.63;;;-0.34;100.00
32933;BME280;19444;50.518;10.870;2023-03-03T04:30:24;96815.06;;;-0.25;100.00
32933;BME280;19444;50.518;10.870;2023-03-03T04:33:22;96800.28;;;-0.38;100.00
32933;BME280;19444;50.518;10.870;2023-03-03T04:36:20;96808.63;;;-0.30;100.00
32933;BME280;19444;50.518;10.870;2023-03-03T04:39:17;96803.84;;;-0.33;100.00
32933;BME280;19444;50.518;10.870;2023-03-03T04:42:14;96797.31;;;-0.30;100.00
32933;BME280;19444;50.518;10.870;2023-03-03T04:45:11;96795.25;;;-0.40;100.00
32933;BME280;19444;50.518;10.870;2023-03-03T04:48:08;96803.06;;;-0.33;100.00
32933;BME280;19444;50.518;10.870;2023-03-03T04:51:05;96807.50;;;-0.34;100.00
32933;BME280;19444;50.518;10.870;2023-03-03T04:54:02;96812.78;;;-0.34;100.00
32933;BME280;19444;50.518;10.870;2023-03-03T04:56:58;96806.94;;;-0.36;100.00
32933;BME280;19444;50.518;10.870;2023-03-03T04:59:55;96808.19;;;-0.38;100.00
32933;BME280;19444;50.518;10.870;2023-03-03T05:02:52;96803.16;;;-0.40;100.00
32933;BME280;19444;50.518;10.870;2023-03-03T05:05:49;96810.59;;;-0.25;100.00
32933;BME280;19444;50.518;10.870;2023-03-03T05:08:46;96810.03;;;-0.27;100.00
32933;BME280;19444;50.518;10.870;2023-03-03T05:11:43;96818.59;;;-0.20;100.00
32933;BME280;19444;50.518;10.870;2023-03-03T05:14:40;96817.69;;;-0.25;100.00
32933;BME280;19444;50.518;10.870;2023-03-03T05:17:37;96816.56;;;-0.41;100.00
32933;BME280;19444;50.518;10.870;2023-03-03T05:20:34;96808.56;;;-0.35;100.00
32933;BME280;19444;50.518;10.870;2023-03-03T05:23:31;96810.38;;;-0.35;100.00
32933;BME280;19444;50.518;10.870;2023-03-03T05:26:28;96807.41;;;-0.27;100.00
32933;BME280;19444;50.518;10.870;2023-03-03T05:29:24;96814.38;;;-0.33;100.00
32933;BME280;19444;50.518;10.870;2023-03-03T05:32:21;96829.38;;;-0.33;100.00
32933;BME280;19444;50.518;10.870;2023-03-03T05:35:18;96826.63;;;-0.26;100.00
32933;BME280;19444;50.518;10.870;2023-03-03T05:38:16;96816.56;;;-0.18;100.00
32933;BME280;19444;50.518;10.870;2023-03-03T05:41:13;96832.78;;;-0.21;100.00
32933;BME280;19444;50.518;10.870;2023-03-03T05:44:10;96840.13;;;-0.23;100.00
32933;BME280;19444;50.518;10.870;2023-03-03T05:47:07;96833.50;;;-0.25;100.00
32933;BME280;19444;50.518;10.870;2023-03-03T05:50:04;96838.44;;;-0.17;100.00
32933;BME280;19444;50.518;10.870;2023-03-03T05:53:02;96843.56;;;-0.22;100.00
32933;BME280;19444;50.518;10.870;2023-03-03T05:55:59;96850.44;;;-0.21;100.00
32933;BME280;19444;50.518;10.870;2023-03-03T05:58:55;96842.50;;;-0.10;100.00
32933;BME280;19444;50.518;10.870;2023-03-03T06:01:52;96838.88;;;-0.09;100.00
32933;BME280;19444;50.518;10.870;2023-03-03T06:04:49;96849.16;;;-0.19;100.00
32933;BME280;19444;50.518;10.870;2023-03-03T06:07:47;96844.84;;;-0.25;100.00
32933;BME280;19444;50.518;10.870;2023-03-03T06:10:44;96855.72;;;-0.45;100.00
32933;BME280;19444;50.518;10.870;2023-03-03T06:13:41;96858.56;;;-0.35;100.00
32933;BME280;19444;50.518;10.870;2023-03-03T06:16:38;96862.34;;;-0.19;100.00
32933;BME280;19444;50.518;10.870;2023-03-03T06:19:36;96851.34;;;-0.16;100.00
32933;BME280;19444;50.518;10.870;2023-03-03T06:22:33;96863.94;;;-0.30;100.00
32933;BME280;19444;50.518;10.870;2023-03-03T06:25:30;96882.38;;;-0.30;100.00
32933;BME280;19444;50.518;10.870;2023-03-03T06:28:27;96900.72;;;-0.35;100.00
32933;BME280;19444;50.518;10.870;2023-03-03T06:31:25;96900.94;;;-0.36;100.00
32933;BME280;19444;50.518;10.870;2023-03-03T06:34:22;96900.47;;;-0.33;100.00
32933;BME280;19444;50.518;10.870;2023-03-03T06:37:19;96906.88;;;-0.29;100.00
32933;BME280;19444;50.518;10.870;2023-03-03T06:40:16;96897.03;;;-0.22;100.00
32933;BME280;19444;50.518;10.870;2023-03-03T06:43:13;96894.97;;;-0.20;100.00
32933;BME280;19444;50.518;10.870;2023-03-03T06:46:10;96898.41;;;-0.19;100.00
32933;BME280;19444;50.518;10.870;2023-03-03T06:49:07;96891.88;;;0.07;100.00
32933;BME280;19444;50.518;10.870;2023-03-03T06:52:22;96885.22;;;0.27;100.00
32933;BME280;19444;50.518;10.870;2023-03-03T06:55:22;96893.03;;;0.11;100.00
32933;BME280;19444;50.518;10.870;2023-03-03T06:58:21;96890.03;;;0.07;100.00
32933;BME280;19444;50.518;10.870;2023-03-03T07:01:18;96904.59;;;-0.14;100.00
32933;BME280;19444;50.518;10.870;2023-03-03T07:04:27;96903.69;;;-0.08;100.00
32933;BME280;19444;50.518;10.870;2023-03-03T07:07:25;96916.63;;;0.06;100.00
32933;BME280;19444;50.518;10.870;2023-03-03T07:10:28;96923.28;;;-0.15;100.00
32933;BME280;19444;50.518;10.870;2023-03-03T07:13:28;96925.34;;;-0.06;100.00
32933;BME280;19444;50.518;10.870;2023-03-03T07:16:26;96933.91;;;-0.22;100.00
32933;BME280;19444;50.518;10.870;2023-03-03T07:19:33;96933.34;;;-0.24;100.00
32933;BME280;19444;50.518;10.870;2023-03-03T07:22:31;96917.31;;;-0.11;100.00
32933;BME280;19444;50.518;10.870;2023-03-03T07:25:32;96921.22;;;-0.25;100.00
32933;BME280;19444;50.518;10.870;2023-03-03T07:28:32;96920.84;;;0.07;100.00
32933;BME280;19444;50.518;10.870;2023-03-03T07:31:40;96934.16;;;0.00;100.00
32933;BME280;19444;50.518;10.870;2023-03-03T07:34:45;96940.34;;;-0.06;100.00
32933;BME280;19444;50.518;10.870;2023-03-03T07:37:43;96945.03;;;0.04;100.00
32933;BME280;19444;50.518;10.870;2023-03-03T07:40:57;96949.50;;;0.15;100.00
32933;BME280;19444;50.518;10.870;2023-03-03T07:44:11;96933.75;;;0.43;100.00
32933;BME280;19444;50.518;10.870;2023-03-03T07:47:30;96929.16;;;0.91;100.00
32933;BME280;19444;50.518;10.870;2023-03-03T07:50:30;96932.50;;;0.86;100.00
32933;BME280;19444;50.518;10.870;2023-03-03T07:53:30;96933.00;;;1.11;100.00
32933;BME280;19444;50.518;10.870;2023-03-03T07:56:34;96926.75;;;0.89;100.00
32933;BME280;19444;50.518;10.870;2023-03-03T07:59:31;96933.75;;;0.95;100.00
32933;BME280;19444;50.518;10.870;2023-03-03T08:05:52;96934.50;;;1.07;100.00
32933;BME280;19444;50.518;10.870;2023-03-03T08:08:49;96939.06;;;1.12;100.00
32933;BME280;19444;50.518;10.870;2023-03-03T08:11:54;96930.16;;;1.01;100.00
32933;BME280;19444;50.518;10.870;2023-03-03T08:14:53;96939.53;;;1.37;100.00
32933;BME280;19444;50.518;10.870;2023-03-03T08:17:53;96938.31;;;1.45;100.00
32933;BME280;19444;50.518;10.870;2023-03-03T08:20:59;96929.84;;;1.43;100.00
32933;BME280;19444;50.518;10.870;2023-03-03T08:23:57;96943.38;;;1.63;100.00
32933;BME280;19444;50.518;10.870;2023-03-03T08:26:54;96937.22;;;1.91;100.00
32933;BME280;19444;50.518;10.870;2023-03-03T08:29:51;96935.31;;;1.87;100.00
32933;BME280;19444;50.518;10.870;2023-03-03T08:32:48;96949.81;;;1.67;100.00
32933;BME280;19444;50.518;10.870;2023-03-03T08:35:45;96962.41;;;1.32;100.00
32933;BME280;19444;50.518;10.870;2023-03-03T08:38:43;96972.22;;;1.20;100.00
32933;BME280;19444;50.518;10.870;2023-03-03T08:41:39;96971.44;;;1.07;100.00
32933;BME280;19444;50.518;10.870;2023-03-03T08:44:39;96970.56;;;1.02;100.00
32933;BME280;19444;50.518;10.870;2023-03-03T08:47:37;96977.84;;;1.40;100.00
32933;BME280;19444;50.518;10.870;2023-03-03T08:50:34;96986.06;;;1.27;100.00
32933;BME280;19444;50.518;10.870;2023-03-03T08:53:32;96990.41;;;1.33;100.00
32933;BME280;19444;50.518;10.870;2023-03-03T08:56:32;96998.00;;;1.01;100.00
32933;BME280;19444;50.518;10.870;2023-03-03T08:59:29;96990.75;;;1.53;100.00
32933;BME280;19444;50.518;10.870;2023-03-03T09:02:27;97006.03;;;1.51;100.00
32933;BME280;19444;50.518;10.870;2023-03-03T09:05:25;97001.31;;;1.53;100.00
32933;BME280;19444;50.518;10.870;2023-03-03T09:08:22;97010.31;;;1.69;100.00
32933;BME280;19444;50.518;10.870;2023-03-03T09:11:25;96993.13;;;1.66;100.00
32933;BME280;19444;50.518;10.870;2023-03-03T09:14:27;96991.34;;;1.72;100.00
32933;BME280;19444;50.518;10.870;2023-03-03T09:17:31;96981.75;;;1.99;100.00
32933;BME280;19444;50.518;10.870;2023-03-03T09:20:45;96998.97;;;1.85;100.00
32933;BME280;19444;50.518;10.870;2023-03-03T09:23:51;97013.31;;;1.44;100.00
32933;BME280;19444;50.518;10.870;2023-03-03T09:26:49;97013.09;;;1.62;100.00
32933;BME280;19444;50.518;10.870;2023-03-03T09:30:02;97003.56;;;1.61;100.00
32933;BME280;19444;50.518;10.870;2023-03-03T09:33:44;97013.69;;;1.81;100.00
32933;BME280;19444;50.518;10.870;2023-03-03T09:36:43;97002.66;;;1.84;100.00
32933;BME280;19444;50.518;10.870;2023-03-03T09:39:40;97005.09;;;1.57;100.00
32933;BME280;19444;50.518;10.870;2023-03-03T09:43:03;97010.28;;;1.52;100.00
32933;BME280;19444;50.518;10.870;2023-03-03T09:47:12;97006.25;;;1.95;100.00
32933;BME280;19444;50.518;10.870;2023-03-03T09:53:53;97008.00;;;1.89;100.00
32933;BME280;19444;50.518;10.870;2023-03-03T10:00:28;97020.19;;;1.90;100.00
32933;BME280;19444;50.518;10.870;2023-03-03T10:03:52;97019.81;;;2.15;100.00
32933;BME280;19444;50.518;10.870;2023-03-03T10:07:18;97014.47;;;3.09;100.00
32933;BME280;19444;50.518;10.870;2023-03-03T10:10:47;97009.72;;;6.22;100.00
32933;BME280;19444;50.518;10.870;2023-03-03T10:14:22;97007.03;;;5.92;100.00
32933;BME280;19444;50.518;10.870;2023-03-03T10:21:44;97027.44;;;2.67;100.00
32933;BME280;19444;50.518;10.870;2023-03-03T10:56:28;97041.59;;;2.39;100.00
32933;BME280;19444;50.518;10.870;2023-03-03T11:00:21;97026.28;;;5.31;100.00
32933;BME280;19444;50.518;10.870;2023-03-03T11:15:06;97021.00;;;7.64;100.00
32933;BME280;19444;50.518;10.870;2023-03-03T11:18:20;97003.81;;;9.49;81.72
32933;BME280;19444;50.518;10.870;2023-03-03T11:21:25;97000.78;;;8.36;79.31
32933;BME280;19444;50.518;10.870;2023-03-03T11:44:43;96967.25;;;10.15;66.93
32933;BME280;19444;50.518;10.870;2023-03-03T11:47:54;96967.66;;;8.90;72.51
32933;BME280;19444;50.518;10.870;2023-03-03T11:50:59;96959.72;;;10.49;64.64
32933;BME280;19444;50.518;10.870;2023-03-03T11:57:45;96959.09;;;10.25;61.83
32933;BME280;19444;50.518;10.870;2023-03-03T12:02:08;96944.63;;;10.40;60.73
32933;BME280;19444;50.518;10.870;2023-03-03T12:04:48;96954.50;;;8.12;67.63
32933;BME280;19444;50.518;10.870;2023-03-03T12:11:36;96936.75;;;9.78;64.16
32933;BME280;19444;50.518;10.870;2023-03-03T12:14:48;96943.16;;;9.26;64.88
32933;BME280;19444;50.518;10.870;2023-03-03T12:18:03;96933.88;;;8.75;70.62
32933;BME280;19444;50.518;10.870;2023-03-03T12:28:08;96938.91;;;9.44;70.20
32933;BME280;19444;50.518;10.870;2023-03-03T12:35:37;96945.47;;;8.42;74.76
32933;BME280;19444;50.518;10.870;2023-03-03T12:39:07;96949.09;;;7.88;79.48
32933;BME280;19444;50.518;10.870;2023-03-03T12:42:35;96946.19;;;6.96;94.62
32933;BME280;19444;50.518;10.870;2023-03-03T12:53:24;96936.09;;;8.10;86.09
32933;BME280;19444;50.518;10.870;2023-03-03T13:00:12;96934.00;;;7.34;92.82
32933;BME280;19444;50.518;10.870;2023-03-03T13:10:53;96945.53;;;6.49;99.67
32933;BME280;19444;50.518;10.870;2023-03-03T13:17:24;96939.72;;;6.02;100.00
32933;BME280;19444;50.518;10.870;2023-03-03T13:27:21;96936.72;;;6.59;100.00
32933;BME280;19444;50.518;10.870;2023-03-03T13:30:28;96944.13;;;6.72;98.16
32933;BME280;19444;50.518;10.870;2023-03-03T13:33:34;96940.91;;;6.80;96.93
32933;BME280;19444;50.518;10.870;2023-03-03T13:36:43;96946.66;;;6.08;100.00
32933;BME280;19444;50.518;10.870;2023-03-03T13:40:03;96941.81;;;6.35;100.00
32933;BME280;19444;50.518;10.870;2023-03-03T13:43:18;96937.44;;;6.80;98.60
32933;BME280;19444;50.518;10.870;2023-03-03T14:06:33;96932.31;;;4.80;100.00
32933;BME280;19444;50.518;10.870;2023-03-03T14:17:01;96917.91;;;4.61;100.00
32933;BME280;19444;50.518;10.870;2023-03-03T14:20:28;96916.22;;;5.12;100.00
32933;BME280;19444;50.518;10.870;2023-03-03T14:26:53;96914.59;;;4.38;100.00
32933;BME280;19444;50.518;10.870;2023-03-03T14:29:51;96921.31;;;4.04;100.00
32933;BME280;19444;50.518;10.870;2023-03-03T14:36:05;96912.31;;;3.72;100.00
32933;BME280;19444;50.518;10.870;2023-03-03T14:39:33;96917.00;;;3.60;100.00
32933;BME280;19444;50.518;10.870;2023-03-03T14:45:47;96912.47;;;3.61;100.00
32933;BME280;19444;50.518;10.870;2023-03-03T14:48:59;96904.38;;;3.40;100.00
32933;BME280;19444;50.518;10.870;2023-03-03T14:52:20;96909.50;;;3.25;100.00
32933;BME280;19444;50.518;10.870;2023-03-03T14:55:36;96900.59;;;3.36;100.00
32933;BME280;19444;50.518;10.870;2023-03-03T14:58:39;96897.16;;;3.36;100.00
32933;BME280;19444;50.518;10.870;2023-03-03T15:01:37;96906.34;;;3.01;100.00
32933;BME280;19444;50.518;10.870;2023-03-03T15:04:35;96902.06;;;2.95;100.00
32933;BME280;19444;50.518;10.870;2023-03-03T15:07:36;96895.09;;;3.11;100.00
32933;BME280;19444;50.518;10.870;2023-03-03T15:10:34;96889.31;;;2.65;100.00
32933;BME280;19444;50.518;10.870;2023-03-03T15:13:34;96895.94;;;2.68;100.00
32933;BME280;19444;50.518;10.870;2023-03-03T15:16:33;96898.25;;;2.86;100.00
32933;BME280;19444;50.518;10.870;2023-03-03T15:27:01;96888.72;;;2.63;100.00
32933;BME280;19444;50.518;10.870;2023-03-03T15:33:43;96889.72;;;1.96;100.00
32933;BME280;19444;50.518;10.870;2023-03-03T15:43:44;96893.69;;;2.16;100.00
32933;BME280;19444;50.518;10.870;2023-03-03T15:47:20;96889.28;;;2.21;100.00
32933;BME280;19444;50.518;10.870;2023-03-03T15:50:36;96891.19;;;2.26;100.00
32933;BME280;19444;50.518;10.870;2023-03-03T16:04:19;96890.41;;;2.47;100.00
32933;BME280;19444;50.518;10.870;2023-03-03T16:14:09;96891.59;;;1.79;100.00
32933;BME280;19444;50.518;10.870;2023-03-03T16:28:17;96901.28;;;1.40;100.00
32933;BME280;19444;50.518;10.870;2023-03-03T16:31:33;96903.00;;;1.18;100.00
32933;BME280;19444;50.518;10.870;2023-03-03T16:34:56;96905.19;;;1.21;100.00
32933;BME280;19444;50.518;10.870;2023-03-03T16:40:59;96921.06;;;1.09;100.00
32933;BME280;19444;50.518;10.870;2023-03-03T16:47:48;96933.44;;;0.80;100.00
32933;BME280;19444;50.518;10.870;2023-03-03T16:54:17;96944.91;;;0.85;100.00
32933;BME280;19444;50.518;10.870;2023-03-03T17:04:53;96965.75;;;0.47;100.00
32933;BME280;19444;50.518;10.870;2023-03-03T17:08:44;96972.41;;;0.38;100.00
32933;BME280;19444;50.518;10.870;2023-03-03T17:22:18;96968.06;;;0.32;100.00
32933;BME280;19444;50.518;10.870;2023-03-03T17:25:57;96980.31;;;0.26;100.00
32933;BME280;19444;50.518;10.870;2023-03-03T17:36:51;96987.66;;;0.01;100.00
32933;BME280;19444;50.518;10.870;2023-03-03T17:40:24;96987.53;;;0.07;100.00
32933;BME280;19444;50.518;10.870;2023-03-03T17:47:03;96988.09;;;-0.14;100.00
32933;BME280;19444;50.518;10.870;2023-03-03T17:50:12;96986.59;;;-0.22;100.00
32933;BME280;19444;50.518;10.870;2023-03-03T17:53:36;96986.00;;;-0.24;100.00
32933;BME280;19444;50.518;10.870;2023-03-03T17:57:13;96991.75;;;-0.15;100.00
32933;BME280;19444;50.518;10.870;2023-03-03T18:00:40;96984.75;;;-0.33;100.00
32933;BME280;19444;50.518;10.870;2023-03-03T18:04:01;96990.00;;;-0.33;100.00
32933;BME280;19444;50.518;10.870;2023-03-03T18:14:11;96996.47;;;-0.59;100.00
32933;BME280;19444;50.518;10.870;2023-03-03T18:21:14;96999.34;;;-0.49;100.00
32933;BME280;19444;50.518;10.870;2023-03-03T18:24:26;96984.88;;;-0.70;100.00
32933;BME280;19444;50.518;10.870;2023-03-03T18:30:27;97001.31;;;-0.74;100.00
32933;BME280;19444;50.518;10.870;2023-03-03T18:39:48;97011.38;;;-1.01;100.00
32933;BME280;19444;50.518;10.870;2023-03-03T18:42:46;97005.91;;;-0.70;100.00
32933;BME280;19444;50.518;10.870;2023-03-03T18:45:48;97016.97;;;-0.79;100.00
32933;BME280;19444;50.518;10.870;2023-03-03T18:49:02;97016.75;;;-0.78;100.00
32933;BME280;19444;50.518;10.870;2023-03-03T18:52:35;97019.13;;;-0.88;100.00
32933;BME280;19444;50.518;10.870;2023-03-03T18:55:40;97025.69;;;-0.79;100.00
32933;BME280;19444;50.518;10.870;2023-03-03T18:58:41;97035.19;;;-0.78;100.00
32933;BME280;19444;50.518;10.870;2023-03-03T19:01:43;97038.69;;;-1.02;100.00
32933;BME280;19444;50.518;10.870;2023-03-03T19:11:54;97029.88;;;-1.08;100.00
32933;BME280;19444;50.518;10.870;2023-03-03T19:14:51;97027.91;;;-1.31;100.00
32933;BME280;19444;50.518;10.870;2023-03-03T19:17:48;97032.22;;;-1.18;100.00
32933;BME280;19444;50.518;10.870;2023-03-03T19:21:23;97026.16;;;-1.19;100.00
32933;BME280;19444;50.518;10.870;2023-03-03T19:27:30;97027.78;;;-1.36;100.00
32933;BME280;19444;50.518;10.870;2023-03-03T19:34:04;97035.16;;;-1.26;100.00
32933;BME280;19444;50.518;10.870;2023-03-03T19:48:03;97028.03;;;-1.62;100.00
32933;BME280;19444;50.518;10.870;2023-03-03T19:51:35;97033.41;;;-1.76;100.00
32933;BME280;19444;50.518;10.870;2023-03-03T19:58:15;97042.66;;;-1.91;100.00
32933;BME280;19444;50.518;10.870;2023-03-03T20:01:47;97034.06;;;-2.05;100.00
32933;BME280;19444;50.518;10.870;2023-03-03T20:05:28;97038.28;;;-2.04;100.00
32933;BME280;19444;50.518;10.870;2023-03-03T20:08:58;97033.72;;;-2.15;100.00
32933;BME280;19444;50.518;10.870;2023-03-03T20:12:22;97029.72;;;-1.93;100.00
32933;BME280;19444;50.518;10.870;2023-03-03T20:15:36;97027.97;;;-2.31;100.00
32933;BME280;19444;50.518;10.870;2023-03-03T20:19:23;97022.75;;;-2.06;100.00
32933;BME280;19444;50.518;10.870;2023-03-03T20:22:46;97030.38;;;-1.97;100.00
32933;BME280;19444;50.518;10.870;2023-03-03T20:26:11;97029.25;;;-2.08;100.00
32933;BME280;19444;50.518;10.870;2023-03-03T20:33:00;97034.03;;;-2.30;100.00
32933;BME280;19444;50.518;10.870;2023-03-03T20:36:08;97035.81;;;-2.24;100.00
32933;BME280;19444;50.518;10.870;2023-03-03T20:42:56;97035.47;;;-2.66;100.00
32933;BME280;19444;50.518;10.870;2023-03-03T20:53:40;97031.94;;;-2.46;100.00
32933;BME280;19444;50.518;10.870;2023-03-03T20:56:51;97033.69;;;-2.40;100.00
32933;BME280;19444;50.518;10.870;2023-03-03T21:06:38;97043.88;;;-2.57;100.00
32933;BME280;19444;50.518;10.870;2023-03-03T21:09:37;97038.03;;;-2.52;100.00
32933;BME280;19444;50.518;10.870;2023-03-03T21:12:34;97040.97;;;-2.42;100.00
32933;BME280;19444;50.518;10.870;2023-03-03T21:15:33;97039.50;;;-2.32;100.00
32933;BME280;19444;50.518;10.870;2023-03-03T21:18:31;97043.66;;;-2.49;100.00
32933;BME280;19444;50.518;10.870;2023-03-03T21:21:35;97040.63;;;-2.46;100.00
32933;BME280;19444;50.518;10.870;2023-03-03T21:24:55;97041.91;;;-2.30;100.00